sensor_id;sensor_type;location;lat;lon;timestamp;P1;durP1;ratioP1;P2;durP2;ratioP2
32872;SDS011;19224;52.462;16.898;2023-12-29T00:02:03;8.45;;;5.10;;
32872;SDS011;19224;52.462;16.898;2023-12-29T00:04:33;9.48;;;5.40;;
32872;SDS011;19224;52.462;16.898;2023-12-29T00:07:08;10.00;;;5.90;;
32872;SDS011;19224;52.462;16.898;2023-12-29T00:09:38;10.60;;;5.65;;
32872;SDS011;19224;52.462;16.898;2023-12-29T00:12:12;10.10;;;5.30;;
32872;SDS011;19224;52.462;16.898;2023-12-29T00:14:47;11.55;;;5.83;;
32872;SDS011;19224;52.462;16.898;2023-12-29T00:17:17;12.25;;;5.95;;
32872;SDS011;19224;52.462;16.898;2023-12-29T00:19:47;12.25;;;5.53;;
32872;SDS011;19224;52.462;16.898;2023-12-29T00:22:19;8.83;;;4.90;;
32872;SDS011;19224;52.462;16.898;2023-12-29T00:24:50;10.45;;;5.28;;
32872;SDS011;19224;52.462;16.898;2023-12-29T00:27:20;9.30;;;4.97;;
32872;SDS011;19224;52.462;16.898;2023-12-29T00:29:50;9.80;;;5.58;;
32872;SDS011;19224;52.462;16.898;2023-12-29T00:32:20;11.12;;;5.35;;
32872;SDS011;19224;52.462;16.898;2023-12-29T00:34:58;8.85;;;4.83;;
32872;SDS011;19224;52.462;16.898;2023-12-29T00:37:30;8.98;;;4.55;;
32872;SDS011;19224;52.462;16.898;2023-12-29T00:40:01;8.10;;;4.72;;
32872;SDS011;19224;52.462;16.898;2023-12-29T00:42:33;9.35;;;5.20;;
32872;SDS011;19224;52.462;16.898;2023-12-29T00:45:06;8.88;;;4.70;;
32872;SDS011;19224;52.462;16.898;2023-12-29T00:47:36;10.05;;;4.92;;
32872;SDS011;19224;52.462;16.898;2023-12-29T00:50:07;12.55;;;5.05;;
32872;SDS011;19224;52.462;16.898;2023-12-29T00:52:38;11.57;;;5.58;;
32872;SDS011;19224;52.462;16.898;2023-12-29T00:55:08;10.60;;;5.35;;
32872;SDS011;19224;52.462;16.898;2023-12-29T00:57:39;8.85;;;4.95;;
32872;SDS011;19224;52.462;16.898;2023-12-29T01:00:13;8.60;;;4.95;;
32872;SDS011;19224;52.462;16.898;2023-12-29T01:02:51;11.12;;;5.12;;
32872;SDS011;19224;52.462;16.898;2023-12-29T01:05:21;8.15;;;5.10;;
32872;SDS011;19224;52.462;16.898;2023-12-29T01:07:54;9.40;;;4.67;;
32872;SDS011;19224;52.462;16.898;2023-12-29T01:10:25;8.55;;;5.03;;
32872;SDS011;19224;52.462;16.898;2023-12-29T01:12:55;7.42;;;4.47;;
32872;SDS011;19224;52.462;16.898;2023-12-29T01:15:25;7.97;;;5.15;;
32872;SDS011;19224;52.462;16.898;2023-12-29T01:17:56;10.53;;;5.42;;
32872;SDS011;19224;52.462;16.898;2023-12-29T01:20:28;8.83;;;4.83;;
32872;SDS011;19224;52.462;16.898;2023-12-29T01:22:58;7.62;;;4.33;;
32872;SDS011;19224;52.462;16.898;2023-12-29T01:25:28;8.18;;;5.10;;
32872;SDS011;19224;52.462;16.898;2023-12-29T01:28:00;9.80;;;5.33;;
32872;SDS011;19224;52.462;16.898;2023-12-29T01:30:30;10.75;;;5.78;;
32872;SDS011;19224;52.462;16.898;2023-12-29T01:33:05;9.25;;;4.97;;
32872;SDS011;19224;52.462;16.898;2023-12-29T01:35:34;7.70;;;4.67;;
32872;SDS011;19224;52.462;16.898;2023-12-29T01:38:06;8.68;;;4.87;;
32872;SDS011;19224;52.462;16.898;2023-12-29T01:40:44;8.10;;;4.75;;
32872;SDS011;19224;52.462;16.898;2023-12-29T01:43:17;9.35;;;4.47;;
32872;SDS011;19224;52.462;16.898;2023-12-29T01:45:47;7.97;;;4.45;;
32872;SDS011;19224;52.462;16.898;2023-12-29T01:48:22;8.60;;;5.12;;
32872;SDS011;19224;52.462;16.898;2023-12-29T01:50:53;9.08;;;4.80;;
32872;SDS011;19224;52.462;16.898;2023-12-29T01:53:33;9.93;;;5.20;;
32872;SDS011;19224;52.462;16.898;2023-12-29T01:56:04;9.98;;;4.62;;
32872;SDS011;19224;52.462;16.898;2023-12-29T01:58:35;8.33;;;5.12;;
32872;SDS011;19224;52.462;16.898;2023-12-29T02:01:06;10.10;;;4.75;;
32872;SDS011;19224;52.462;16.898;2023-12-29T02:03:45;7.92;;;4.47;;
32872;SDS011;19224;52.462;16.898;2023-12-29T02:06:16;7.28;;;4.30;;
32872;SDS011;19224;52.462;16.898;2023-12-29T02:08:46;7.28;;;4.00;;
32872;SDS011;19224;52.462;16.898;2023-12-29T02:11:17;8.90;;;4.05;;
32872;SDS011;19224;52.462;16.898;2023-12-29T02:13:53;7.40;;;4.10;;
32872;SDS011;19224;52.462;16.898;2023-12-29T02:22:16;8.38;;;4.25;;
32872;SDS011;19224;52.462;16.898;2023-12-29T02:24:49;7.40;;;4.40;;
32872;SDS011;19224;52.462;16.898;2023-12-29T02:33:22;6.75;;;4.10;;
32872;SDS011;19224;52.462;16.898;2023-12-29T02:35:57;9.28;;;4.37;;
32872;SDS011;19224;52.462;16.898;2023-12-29T02:38:31;7.78;;;4.17;;
32872;SDS011;19224;52.462;16.898;2023-12-29T02:41:03;6.10;;;3.50;;
32872;SDS011;19224;52.462;16.898;2023-12-29T02:43:38;8.00;;;4.08;;
32872;SDS011;19224;52.462;16.898;2023-12-29T02:46:13;6.53;;;4.08;;
32872;SDS011;19224;52.462;16.898;2023-12-29T02:48:43;7.30;;;3.75;;
32872;SDS011;19224;52.462;16.898;2023-12-29T02:51:14;8.23;;;4.42;;
32872;SDS011;19224;52.462;16.898;2023-12-29T02:53:45;6.17;;;3.80;;
32872;SDS011;19224;52.462;16.898;2023-12-29T02:56:17;8.18;;;3.80;;
32872;SDS011;19224;52.462;16.898;2023-12-29T02:58:49;7.12;;;3.70;;
32872;SDS011;19224;52.462;16.898;2023-12-29T03:01:22;9.03;;;3.83;;
32872;SDS011;19224;52.462;16.898;2023-12-29T03:03:55;6.53;;;3.40;;
32872;SDS011;19224;52.462;16.898;2023-12-29T03:06:25;5.58;;;3.40;;
32872;SDS011;19224;52.462;16.898;2023-12-29T03:08:55;6.55;;;3.67;;
32872;SDS011;19224;52.462;16.898;2023-12-29T03:11:26;8.85;;;4.28;;
32872;SDS011;19224;52.462;16.898;2023-12-29T03:13:56;7.75;;;3.92;;
32872;SDS011;19224;52.462;16.898;2023-12-29T03:16:28;6.33;;;3.72;;
32872;SDS011;19224;52.462;16.898;2023-12-29T03:19:01;4.62;;;3.35;;
32872;SDS011;19224;52.462;16.898;2023-12-29T03:21:34;9.00;;;3.70;;
32872;SDS011;19224;52.462;16.898;2023-12-29T03:24:05;10.03;;;3.90;;
32872;SDS011;19224;52.462;16.898;2023-12-29T03:26:36;7.80;;;3.58;;
32872;SDS011;19224;52.462;16.898;2023-12-29T03:29:08;5.70;;;2.92;;
32872;SDS011;19224;52.462;16.898;2023-12-29T03:31:41;5.10;;;3.20;;
32872;SDS011;19224;52.462;16.898;2023-12-29T03:34:11;7.30;;;3.77;;
32872;SDS011;19224;52.462;16.898;2023-12-29T03:36:44;5.65;;;2.85;;
32872;SDS011;19224;52.462;16.898;2023-12-29T03:39:17;6.17;;;3.50;;
32872;SDS011;19224;52.462;16.898;2023-12-29T03:41:47;8.03;;;3.60;;
32872;SDS011;19224;52.462;16.898;2023-12-29T03:44:18;5.30;;;2.92;;
32872;SDS011;19224;52.462;16.898;2023-12-29T03:46:53;5.90;;;2.92;;
32872;SDS011;19224;52.462;16.898;2023-12-29T03:49:28;5.05;;;3.10;;
32872;SDS011;19224;52.462;16.898;2023-12-29T03:51:58;5.90;;;3.25;;
32872;SDS011;19224;52.462;16.898;2023-12-29T03:54:31;3.80;;;2.90;;
32872;SDS011;19224;52.462;16.898;2023-12-29T03:57:00;3.95;;;2.70;;
32872;SDS011;19224;52.462;16.898;2023-12-29T03:59:30;4.00;;;2.92;;
32872;SDS011;19224;52.462;16.898;2023-12-29T04:02:01;6.37;;;3.00;;
32872;SDS011;19224;52.462;16.898;2023-12-29T04:04:32;4.55;;;2.85;;
32872;SDS011;19224;52.462;16.898;2023-12-29T04:07:13;3.95;;;2.75;;
32872;SDS011;19224;52.462;16.898;2023-12-29T04:09:49;5.03;;;3.25;;
32872;SDS011;19224;52.462;16.898;2023-12-29T04:12:25;6.75;;;3.50;;
32872;SDS011;19224;52.462;16.898;2023-12-29T04:14:57;4.80;;;3.08;;
32872;SDS011;19224;52.462;16.898;2023-12-29T04:17:32;4.95;;;3.05;;
32872;SDS011;19224;52.462;16.898;2023-12-29T04:20:05;4.17;;;2.87;;
32872;SDS011;19224;52.462;16.898;2023-12-29T04:22:37;3.90;;;2.60;;
32872;SDS011;19224;52.462;16.898;2023-12-29T04:25:10;3.35;;;2.80;;
32872;SDS011;19224;52.462;16.898;2023-12-29T04:27:41;5.90;;;3.10;;
32872;SDS011;19224;52.462;16.898;2023-12-29T04:30:11;6.40;;;2.90;;
32872;SDS011;19224;52.462;16.898;2023-12-29T04:32:42;6.80;;;3.17;;
32872;SDS011;19224;52.462;16.898;2023-12-29T04:35:12;5.60;;;3.15;;
32872;SDS011;19224;52.462;16.898;2023-12-29T04:37:47;4.80;;;3.30;;
32872;SDS011;19224;52.462;16.898;2023-12-29T04:40:24;5.35;;;3.00;;
32872;SDS011;19224;52.462;16.898;2023-12-29T04:42:54;5.42;;;3.10;;
32872;SDS011;19224;52.462;16.898;2023-12-29T04:45:24;6.45;;;3.00;;
32872;SDS011;19224;52.462;16.898;2023-12-29T04:48:03;4.97;;;3.33;;
32872;SDS011;19224;52.462;16.898;2023-12-29T04:50:36;4.87;;;3.17;;
32872;SDS011;19224;52.462;16.898;2023-12-29T04:53:07;7.70;;;3.52;;
32872;SDS011;19224;52.462;16.898;2023-12-29T04:55:37;5.90;;;3.40;;
32872;SDS011;19224;52.462;16.898;2023-12-29T04:58:07;6.62;;;3.30;;
32872;SDS011;19224;52.462;16.898;2023-12-29T05:00:45;6.75;;;3.42;;
32872;SDS011;19224;52.462;16.898;2023-12-29T05:03:13;5.42;;;3.30;;
32872;SDS011;19224;52.462;16.898;2023-12-29T05:05:44;6.30;;;2.92;;
32872;SDS011;19224;52.462;16.898;2023-12-29T05:08:23;5.72;;;3.15;;
32872;SDS011;19224;52.462;16.898;2023-12-29T05:10:53;5.33;;;3.15;;
32872;SDS011;19224;52.462;16.898;2023-12-29T05:13:25;3.90;;;2.92;;
32872;SDS011;19224;52.462;16.898;2023-12-29T05:15:57;7.37;;;3.33;;
32872;SDS011;19224;52.462;16.898;2023-12-29T05:18:32;5.08;;;2.77;;
32872;SDS011;19224;52.462;16.898;2023-12-29T05:21:15;4.65;;;3.10;;
32872;SDS011;19224;52.462;16.898;2023-12-29T05:23:50;4.30;;;3.20;;
32872;SDS011;19224;52.462;16.898;2023-12-29T05:26:22;8.25;;;2.95;;
32872;SDS011;19224;52.462;16.898;2023-12-29T05:28:53;6.80;;;3.72;;
32872;SDS011;19224;52.462;16.898;2023-12-29T05:31:24;5.35;;;3.40;;
32872;SDS011;19224;52.462;16.898;2023-12-29T05:33:58;3.92;;;2.75;;
32872;SDS011;19224;52.462;16.898;2023-12-29T05:36:29;4.85;;;2.72;;
32872;SDS011;19224;52.462;16.898;2023-12-29T05:39:00;5.00;;;2.62;;
32872;SDS011;19224;52.462;16.898;2023-12-29T05:41:31;4.85;;;3.02;;
32872;SDS011;19224;52.462;16.898;2023-12-29T05:44:08;5.80;;;2.72;;
32872;SDS011;19224;52.462;16.898;2023-12-29T05:46:45;7.28;;;3.15;;
32872;SDS011;19224;52.462;16.898;2023-12-29T05:49:17;4.95;;;3.05;;
32872;SDS011;19224;52.462;16.898;2023-12-29T05:51:50;7.35;;;2.85;;
32872;SDS011;19224;52.462;16.898;2023-12-29T05:54:20;3.95;;;2.42;;
32872;SDS011;19224;52.462;16.898;2023-12-29T05:56:50;7.00;;;2.67;;
32872;SDS011;19224;52.462;16.898;2023-12-29T05:59:26;4.12;;;2.25;;
32872;SDS011;19224;52.462;16.898;2023-12-29T06:01:57;7.10;;;2.80;;
32872;SDS011;19224;52.462;16.898;2023-12-29T06:04:33;5.70;;;3.00;;
32872;SDS011;19224;52.462;16.898;2023-12-29T06:07:03;4.42;;;2.75;;
32872;SDS011;19224;52.462;16.898;2023-12-29T06:09:39;3.85;;;2.60;;
32872;SDS011;19224;52.462;16.898;2023-12-29T06:12:13;4.10;;;2.70;;
32872;SDS011;19224;52.462;16.898;2023-12-29T06:14:45;4.97;;;3.02;;
32872;SDS011;19224;52.462;16.898;2023-12-29T06:17:15;5.65;;;3.25;;
32872;SDS011;19224;52.462;16.898;2023-12-29T06:19:46;7.70;;;3.10;;
32872;SDS011;19224;52.462;16.898;2023-12-29T06:22:16;5.65;;;2.87;;
32872;SDS011;19224;52.462;16.898;2023-12-29T06:24:50;4.08;;;2.58;;
32872;SDS011;19224;52.462;16.898;2023-12-29T06:27:20;4.65;;;2.90;;
32872;SDS011;19224;52.462;16.898;2023-12-29T06:29:51;3.80;;;2.50;;
32872;SDS011;19224;52.462;16.898;2023-12-29T06:32:23;3.37;;;2.40;;
32872;SDS011;19224;52.462;16.898;2023-12-29T06:34:53;4.08;;;2.30;;
32872;SDS011;19224;52.462;16.898;2023-12-29T06:37:23;5.05;;;2.80;;
32872;SDS011;19224;52.462;16.898;2023-12-29T06:39:58;4.05;;;2.33;;
32872;SDS011;19224;52.462;16.898;2023-12-29T06:42:29;7.00;;;3.00;;
32872;SDS011;19224;52.462;16.898;2023-12-29T06:45:00;4.12;;;2.50;;
32872;SDS011;19224;52.462;16.898;2023-12-29T06:47:31;4.12;;;2.52;;
32872;SDS011;19224;52.462;16.898;2023-12-29T06:50:01;3.40;;;2.33;;
32872;SDS011;19224;52.462;16.898;2023-12-29T06:52:33;4.72;;;2.42;;
32872;SDS011;19224;52.462;16.898;2023-12-29T06:55:09;3.65;;;2.20;;
32872;SDS011;19224;52.462;16.898;2023-12-29T06:57:40;2.60;;;2.08;;
32872;SDS011;19224;52.462;16.898;2023-12-29T07:00:11;5.62;;;2.70;;
32872;SDS011;19224;52.462;16.898;2023-12-29T07:02:43;6.05;;;2.60;;
32872;SDS011;19224;52.462;16.898;2023-12-29T07:05:22;6.37;;;3.00;;
32872;SDS011;19224;52.462;16.898;2023-12-29T07:07:52;5.87;;;2.92;;
32872;SDS011;19224;52.462;16.898;2023-12-29T07:10:22;5.22;;;2.87;;
32872;SDS011;19224;52.462;16.898;2023-12-29T07:12:55;3.95;;;2.40;;
32872;SDS011;19224;52.462;16.898;2023-12-29T07:15:28;5.33;;;2.33;;
32872;SDS011;19224;52.462;16.898;2023-12-29T07:18:04;4.50;;;2.65;;
32872;SDS011;19224;52.462;16.898;2023-12-29T07:20:30;5.40;;;2.33;;
32872;SDS011;19224;52.462;16.898;2023-12-29T07:23:01;4.40;;;2.58;;
32872;SDS011;19224;52.462;16.898;2023-12-29T07:25:33;3.67;;;2.40;;
32872;SDS011;19224;52.462;16.898;2023-12-29T07:28:06;3.85;;;2.37;;
32872;SDS011;19224;52.462;16.898;2023-12-29T07:30:39;2.95;;;2.30;;
32872;SDS011;19224;52.462;16.898;2023-12-29T07:33:09;5.10;;;2.40;;
32872;SDS011;19224;52.462;16.898;2023-12-29T07:35:40;4.37;;;2.47;;
32872;SDS011;19224;52.462;16.898;2023-12-29T07:38:12;4.58;;;2.58;;
32872;SDS011;19224;52.462;16.898;2023-12-29T07:40:42;5.12;;;2.58;;
32872;SDS011;19224;52.462;16.898;2023-12-29T07:43:16;3.90;;;2.62;;
32872;SDS011;19224;52.462;16.898;2023-12-29T07:45:48;3.45;;;2.37;;
32872;SDS011;19224;52.462;16.898;2023-12-29T07:48:19;6.62;;;2.90;;
32872;SDS011;19224;52.462;16.898;2023-12-29T07:50:51;4.60;;;2.12;;
32872;SDS011;19224;52.462;16.898;2023-12-29T07:53:25;4.40;;;2.42;;
32872;SDS011;19224;52.462;16.898;2023-12-29T07:55:57;3.77;;;2.40;;
32872;SDS011;19224;52.462;16.898;2023-12-29T07:58:27;5.75;;;3.08;;
32872;SDS011;19224;52.462;16.898;2023-12-29T08:00:59;4.97;;;2.87;;
32872;SDS011;19224;52.462;16.898;2023-12-29T08:03:30;3.92;;;2.65;;
32872;SDS011;19224;52.462;16.898;2023-12-29T08:06:01;5.30;;;2.55;;
32872;SDS011;19224;52.462;16.898;2023-12-29T08:08:37;3.87;;;2.67;;
32872;SDS011;19224;52.462;16.898;2023-12-29T08:11:12;4.50;;;2.52;;
32872;SDS011;19224;52.462;16.898;2023-12-29T08:13:46;6.42;;;2.70;;
32872;SDS011;19224;52.462;16.898;2023-12-29T08:16:17;3.72;;;2.50;;
32872;SDS011;19224;52.462;16.898;2023-12-29T08:18:48;4.20;;;2.50;;
32872;SDS011;19224;52.462;16.898;2023-12-29T08:21:24;4.55;;;2.27;;
32872;SDS011;19224;52.462;16.898;2023-12-29T08:23:56;4.75;;;2.40;;
32872;SDS011;19224;52.462;16.898;2023-12-29T08:26:32;4.67;;;2.87;;
32872;SDS011;19224;52.462;16.898;2023-12-29T08:29:00;5.40;;;2.58;;
32872;SDS011;19224;52.462;16.898;2023-12-29T08:31:30;4.80;;;3.00;;
32872;SDS011;19224;52.462;16.898;2023-12-29T08:34:07;7.65;;;3.55;;
32872;SDS011;19224;52.462;16.898;2023-12-29T08:36:32;7.42;;;3.92;;
32872;SDS011;19224;52.462;16.898;2023-12-29T08:39:03;4.83;;;3.02;;
32872;SDS011;19224;52.462;16.898;2023-12-29T08:41:36;6.37;;;2.72;;
32872;SDS011;19224;52.462;16.898;2023-12-29T08:44:09;6.15;;;2.95;;
32872;SDS011;19224;52.462;16.898;2023-12-29T08:46:45;4.92;;;2.75;;
32872;SDS011;19224;52.462;16.898;2023-12-29T08:49:15;4.03;;;2.87;;
32872;SDS011;19224;52.462;16.898;2023-12-29T08:51:47;10.13;;;6.08;;
32872;SDS011;19224;52.462;16.898;2023-12-29T08:54:18;8.00;;;3.92;;
32872;SDS011;19224;52.462;16.898;2023-12-29T08:56:49;5.92;;;3.52;;
32872;SDS011;19224;52.462;16.898;2023-12-29T08:59:21;5.17;;;3.10;;
32872;SDS011;19224;52.462;16.898;2023-12-29T09:01:51;5.15;;;2.90;;
32872;SDS011;19224;52.462;16.898;2023-12-29T09:04:23;5.00;;;3.17;;
32872;SDS011;19224;52.462;16.898;2023-12-29T09:06:56;8.28;;;3.12;;
32872;SDS011;19224;52.462;16.898;2023-12-29T09:09:26;8.38;;;3.00;;
32872;SDS011;19224;52.462;16.898;2023-12-29T09:11:58;5.28;;;3.02;;
32872;SDS011;19224;52.462;16.898;2023-12-29T09:14:33;7.35;;;3.33;;
32872;SDS011;19224;52.462;16.898;2023-12-29T09:17:03;7.62;;;3.47;;
32872;SDS011;19224;52.462;16.898;2023-12-29T09:19:34;7.58;;;3.10;;
32872;SDS011;19224;52.462;16.898;2023-12-29T09:22:07;8.00;;;3.20;;
32872;SDS011;19224;52.462;16.898;2023-12-29T09:24:42;13.55;;;8.05;;
32872;SDS011;19224;52.462;16.898;2023-12-29T09:27:12;5.05;;;3.12;;
32872;SDS011;19224;52.462;16.898;2023-12-29T09:29:49;5.50;;;3.02;;
32872;SDS011;19224;52.462;16.898;2023-12-29T09:32:16;5.05;;;2.35;;
32872;SDS011;19224;52.462;16.898;2023-12-29T09:34:54;6.05;;;3.00;;
32872;SDS011;19224;52.462;16.898;2023-12-29T09:37:27;4.25;;;2.45;;
32872;SDS011;19224;52.462;16.898;2023-12-29T09:40:02;5.55;;;2.60;;
32872;SDS011;19224;52.462;16.898;2023-12-29T09:42:35;6.60;;;2.52;;
32872;SDS011;19224;52.462;16.898;2023-12-29T09:45:15;4.85;;;2.70;;
32872;SDS011;19224;52.462;16.898;2023-12-29T09:47:42;3.08;;;2.33;;
32872;SDS011;19224;52.462;16.898;2023-12-29T09:50:13;2.55;;;1.72;;
32872;SDS011;19224;52.462;16.898;2023-12-29T09:52:46;4.30;;;1.77;;
32872;SDS011;19224;52.462;16.898;2023-12-29T09:55:18;3.35;;;1.95;;
32872;SDS011;19224;52.462;16.898;2023-12-29T09:57:54;3.37;;;2.00;;
32872;SDS011;19224;52.462;16.898;2023-12-29T10:00:27;3.40;;;1.80;;
32872;SDS011;19224;52.462;16.898;2023-12-29T10:03:02;3.05;;;1.50;;
32872;SDS011;19224;52.462;16.898;2023-12-29T10:05:37;3.72;;;2.08;;
32872;SDS011;19224;52.462;16.898;2023-12-29T10:08:09;3.30;;;2.00;;
32872;SDS011;19224;52.462;16.898;2023-12-29T10:10:45;3.27;;;1.80;;
32872;SDS011;19224;52.462;16.898;2023-12-29T10:13:18;3.67;;;1.65;;
32872;SDS011;19224;52.462;16.898;2023-12-29T10:15:54;3.30;;;1.98;;
32872;SDS011;19224;52.462;16.898;2023-12-29T10:18:31;4.00;;;1.92;;
32872;SDS011;19224;52.462;16.898;2023-12-29T10:21:33;2.95;;;1.85;;
32872;SDS011;19224;52.462;16.898;2023-12-29T10:24:16;3.05;;;1.90;;
32872;SDS011;19224;52.462;16.898;2023-12-29T10:26:50;2.55;;;1.67;;
32872;SDS011;19224;52.462;16.898;2023-12-29T10:29:22;4.47;;;1.95;;
32872;SDS011;19224;52.462;16.898;2023-12-29T10:31:55;2.47;;;1.72;;
32872;SDS011;19224;52.462;16.898;2023-12-29T10:34:27;3.67;;;2.10;;
32872;SDS011;19224;52.462;16.898;2023-12-29T10:36:59;5.08;;;1.98;;
32872;SDS011;19224;52.462;16.898;2023-12-29T10:39:32;5.08;;;2.60;;
32872;SDS011;19224;52.462;16.898;2023-12-29T10:42:08;5.03;;;2.45;;
32872;SDS011;19224;52.462;16.898;2023-12-29T10:44:39;4.65;;;1.87;;
32872;SDS011;19224;52.462;16.898;2023-12-29T10:47:13;5.47;;;2.40;;
32872;SDS011;19224;52.462;16.898;2023-12-29T10:49:48;2.60;;;1.75;;
32872;SDS011;19224;52.462;16.898;2023-12-29T10:52:24;4.17;;;2.00;;
32872;SDS011;19224;52.462;16.898;2023-12-29T10:55:05;4.28;;;2.17;;
32872;SDS011;19224;52.462;16.898;2023-12-29T10:57:44;6.25;;;1.62;;
32872;SDS011;19224;52.462;16.898;2023-12-29T11:00:15;4.95;;;2.33;;
32872;SDS011;19224;52.462;16.898;2023-12-29T11:02:53;6.50;;;2.72;;
32872;SDS011;19224;52.462;16.898;2023-12-29T11:05:34;4.40;;;2.35;;
32872;SDS011;19224;52.462;16.898;2023-12-29T11:08:00;5.50;;;3.20;;
32872;SDS011;19224;52.462;16.898;2023-12-29T11:10:33;5.30;;;2.50;;
32872;SDS011;19224;52.462;16.898;2023-12-29T11:13:04;5.72;;;2.70;;
32872;SDS011;19224;52.462;16.898;2023-12-29T11:15:35;8.95;;;3.15;;
32872;SDS011;19224;52.462;16.898;2023-12-29T11:18:09;5.17;;;2.60;;
32872;SDS011;19224;52.462;16.898;2023-12-29T11:20:43;5.35;;;2.58;;
32872;SDS011;19224;52.462;16.898;2023-12-29T11:23:14;8.45;;;2.92;;
32872;SDS011;19224;52.462;16.898;2023-12-29T11:25:45;4.65;;;2.30;;
32872;SDS011;19224;52.462;16.898;2023-12-29T11:28:16;4.62;;;2.30;;
32872;SDS011;19224;52.462;16.898;2023-12-29T11:30:48;3.50;;;2.10;;
32872;SDS011;19224;52.462;16.898;2023-12-29T11:33:22;3.65;;;2.20;;
32872;SDS011;19224;52.462;16.898;2023-12-29T11:35:56;6.05;;;3.00;;
32872;SDS011;19224;52.462;16.898;2023-12-29T11:41:21;5.72;;;2.62;;
32872;SDS011;19224;52.462;16.898;2023-12-29T11:44:24;5.95;;;2.65;;
32872;SDS011;19224;52.462;16.898;2023-12-29T11:46:57;8.38;;;2.47;;
32872;SDS011;19224;52.462;16.898;2023-12-29T11:49:29;5.65;;;2.40;;
32872;SDS011;19224;52.462;16.898;2023-12-29T11:52:34;6.08;;;2.27;;
32872;SDS011;19224;52.462;16.898;2023-12-29T11:55:14;8.85;;;2.60;;
32872;SDS011;19224;52.462;16.898;2023-12-29T11:57:47;7.20;;;3.27;;
32872;SDS011;19224;52.462;16.898;2023-12-29T12:00:17;6.35;;;3.00;;
32872;SDS011;19224;52.462;16.898;2023-12-29T12:02:47;6.87;;;2.87;;
32872;SDS011;19224;52.462;16.898;2023-12-29T12:05:55;4.05;;;2.47;;
32872;SDS011;19224;52.462;16.898;2023-12-29T12:08:30;6.05;;;2.60;;
32872;SDS011;19224;52.462;16.898;2023-12-29T12:14:06;6.58;;;2.02;;
32872;SDS011;19224;52.462;16.898;2023-12-29T12:19:21;7.05;;;2.37;;
32872;SDS011;19224;52.462;16.898;2023-12-29T12:21:54;8.03;;;3.17;;
32872;SDS011;19224;52.462;16.898;2023-12-29T12:24:25;7.62;;;3.40;;
32872;SDS011;19224;52.462;16.898;2023-12-29T12:26:59;5.67;;;2.20;;
32872;SDS011;19224;52.462;16.898;2023-12-29T12:29:34;4.47;;;2.37;;
32872;SDS011;19224;52.462;16.898;2023-12-29T12:32:08;8.30;;;3.02;;
32872;SDS011;19224;52.462;16.898;2023-12-29T12:34:39;6.35;;;2.95;;
32872;SDS011;19224;52.462;16.898;2023-12-29T12:37:09;9.08;;;2.50;;
32872;SDS011;19224;52.462;16.898;2023-12-29T12:39:40;5.53;;;2.90;;
32872;SDS011;19224;52.462;16.898;2023-12-29T12:42:10;12.13;;;2.47;;
32872;SDS011;19224;52.462;16.898;2023-12-29T12:44:42;3.00;;;2.00;;
32872;SDS011;19224;52.462;16.898;2023-12-29T12:47:42;4.37;;;1.60;;
32872;SDS011;19224;52.462;16.898;2023-12-29T12:50:17;4.62;;;1.80;;
32872;SDS011;19224;52.462;16.898;2023-12-29T12:52:52;4.65;;;1.90;;
32872;SDS011;19224;52.462;16.898;2023-12-29T12:55:32;2.42;;;1.60;;
32872;SDS011;19224;52.462;16.898;2023-12-29T12:58:08;3.35;;;1.82;;
32872;SDS011;19224;52.462;16.898;2023-12-29T13:00:45;5.17;;;2.08;;
32872;SDS011;19224;52.462;16.898;2023-12-29T13:03:17;13.83;;;4.25;;
32872;SDS011;19224;52.462;16.898;2023-12-29T13:05:47;8.00;;;3.60;;
32872;SDS011;19224;52.462;16.898;2023-12-29T13:08:20;8.48;;;3.77;;
32872;SDS011;19224;52.462;16.898;2023-12-29T13:10:52;6.90;;;2.72;;
32872;SDS011;19224;52.462;16.898;2023-12-29T13:13:39;4.67;;;2.00;;
32872;SDS011;19224;52.462;16.898;2023-12-29T13:16:11;5.20;;;2.62;;
32872;SDS011;19224;52.462;16.898;2023-12-29T13:18:41;5.87;;;2.10;;
32872;SDS011;19224;52.462;16.898;2023-12-29T13:21:16;3.42;;;1.80;;
32872;SDS011;19224;52.462;16.898;2023-12-29T13:23:46;3.62;;;1.90;;
32872;SDS011;19224;52.462;16.898;2023-12-29T13:26:23;5.87;;;1.77;;
32872;SDS011;19224;52.462;16.898;2023-12-29T13:28:55;4.00;;;1.70;;
32872;SDS011;19224;52.462;16.898;2023-12-29T13:31:30;3.40;;;1.80;;
32872;SDS011;19224;52.462;16.898;2023-12-29T13:34:04;4.10;;;1.60;;
32872;SDS011;19224;52.462;16.898;2023-12-29T13:39:37;7.78;;;1.80;;
32872;SDS011;19224;52.462;16.898;2023-12-29T13:42:29;3.58;;;1.82;;
32872;SDS011;19224;52.462;16.898;2023-12-29T13:45:01;7.80;;;2.35;;
32872;SDS011;19224;52.462;16.898;2023-12-29T13:47:36;4.60;;;1.87;;
32872;SDS011;19224;52.462;16.898;2023-12-29T13:50:08;4.33;;;2.25;;
32872;SDS011;19224;52.462;16.898;2023-12-29T13:52:45;6.22;;;3.05;;
32872;SDS011;19224;52.462;16.898;2023-12-29T13:55:21;3.42;;;2.27;;
32872;SDS011;19224;52.462;16.898;2023-12-29T13:57:53;6.00;;;2.33;;
32872;SDS011;19224;52.462;16.898;2023-12-29T14:00:24;5.47;;;2.05;;
32872;SDS011;19224;52.462;16.898;2023-12-29T14:03:05;8.23;;;3.42;;
32872;SDS011;19224;52.462;16.898;2023-12-29T14:05:43;5.42;;;2.40;;
32872;SDS011;19224;52.462;16.898;2023-12-29T14:08:33;5.28;;;2.27;;
32872;SDS011;19224;52.462;16.898;2023-12-29T14:11:14;8.40;;;2.30;;
32872;SDS011;19224;52.462;16.898;2023-12-29T14:13:46;4.60;;;2.00;;
32872;SDS011;19224;52.462;16.898;2023-12-29T14:16:17;3.90;;;2.10;;
32872;SDS011;19224;52.462;16.898;2023-12-29T14:18:52;3.70;;;2.08;;
32872;SDS011;19224;52.462;16.898;2023-12-29T14:21:29;6.72;;;2.30;;
32872;SDS011;19224;52.462;16.898;2023-12-29T14:24:06;5.55;;;2.02;;
32872;SDS011;19224;52.462;16.898;2023-12-29T14:26:54;5.33;;;1.72;;
32872;SDS011;19224;52.462;16.898;2023-12-29T14:29:26;4.53;;;2.05;;
32872;SDS011;19224;52.462;16.898;2023-12-29T14:31:57;3.77;;;2.02;;
32872;SDS011;19224;52.462;16.898;2023-12-29T14:34:34;4.22;;;2.10;;
32872;SDS011;19224;52.462;16.898;2023-12-29T14:37:03;3.37;;;2.00;;
32872;SDS011;19224;52.462;16.898;2023-12-29T14:39:37;3.47;;;1.85;;
32872;SDS011;19224;52.462;16.898;2023-12-29T14:42:13;5.17;;;2.27;;
32872;SDS011;19224;52.462;16.898;2023-12-29T14:44:47;6.12;;;2.40;;
32872;SDS011;19224;52.462;16.898;2023-12-29T14:47:24;5.78;;;2.08;;
32872;SDS011;19224;52.462;16.898;2023-12-29T14:49:56;4.55;;;1.92;;
32872;SDS011;19224;52.462;16.898;2023-12-29T14:52:27;3.70;;;2.12;;
32872;SDS011;19224;52.462;16.898;2023-12-29T14:54:57;3.90;;;2.22;;
32872;SDS011;19224;52.462;16.898;2023-12-29T14:57:29;5.15;;;2.40;;
32872;SDS011;19224;52.462;16.898;2023-12-29T15:00:01;5.08;;;2.40;;
32872;SDS011;19224;52.462;16.898;2023-12-29T15:02:35;5.35;;;2.45;;
32872;SDS011;19224;52.462;16.898;2023-12-29T15:05:05;4.55;;;2.25;;
32872;SDS011;19224;52.462;16.898;2023-12-29T15:07:37;5.78;;;2.40;;
32872;SDS011;19224;52.462;16.898;2023-12-29T15:10:24;6.87;;;2.90;;
32872;SDS011;19224;52.462;16.898;2023-12-29T15:12:41;3.62;;;2.02;;
32872;SDS011;19224;52.462;16.898;2023-12-29T15:15:16;5.37;;;2.35;;
32872;SDS011;19224;52.462;16.898;2023-12-29T15:17:46;11.33;;;2.35;;
32872;SDS011;19224;52.462;16.898;2023-12-29T15:20:17;4.65;;;2.30;;
32872;SDS011;19224;52.462;16.898;2023-12-29T15:22:47;6.00;;;2.50;;
32872;SDS011;19224;52.462;16.898;2023-12-29T15:25:37;4.00;;;1.85;;
32872;SDS011;19224;52.462;16.898;2023-12-29T15:28:07;4.85;;;2.27;;
32872;SDS011;19224;52.462;16.898;2023-12-29T15:30:39;4.70;;;2.40;;
32872;SDS011;19224;52.462;16.898;2023-12-29T15:33:09;6.40;;;2.80;;